Terminal Aerodrome Forecast
Issued by NWS Twin Cities, MN

Home | Current Version | Previous Version | Graphics & Text | Print | Product List | Glossary On
Versions: 1 2 3 4 5 6 7 8 9 10 11 12 13 14 15 16 17 18
637
FTUS43 KMPX 222336
TAFSTC
TAF
KSTC 222336Z 2300/2324 08007KT P6SM BKN014 OVC040
     FM230500 07006KT P6SM OVC008
     FM231500 09009G15KT P6SM OVC012=

USA.gov is the U.S. government's official web portal to all federal, state and local government web resources and services.